createdAt,value
2019-06-20T00:00:32.285Z,10.90
2019-06-20T00:03:01.634Z,10.05
2019-06-20T00:05:31.190Z,9.63
2019-06-20T00:08:00.626Z,10.45
2019-06-20T00:10:30.036Z,9.63
2019-06-20T00:13:00.729Z,9.90
2019-06-20T00:15:30.315Z,9.20
2019-06-20T00:17:59.764Z,9.18
2019-06-20T00:20:29.224Z,9.13
2019-06-20T00:22:58.464Z,9.47
2019-06-20T00:25:27.890Z,10.23
2019-06-20T00:27:57.341Z,10.25
2019-06-20T00:30:28.213Z,9.85
2019-06-20T00:32:57.614Z,9.10
2019-06-20T00:35:27.040Z,9.23
2019-06-20T00:37:56.464Z,9.58
2019-06-20T00:40:25.888Z,9.53
2019-06-20T00:42:55.243Z,9.55
2019-06-20T00:45:25.472Z,9.40
2019-06-20T00:47:55.006Z,9.93
2019-06-20T00:50:24.386Z,9.98
2019-06-20T00:52:53.726Z,10.35
2019-06-20T00:55:23.267Z,10.90
2019-06-20T00:57:52.700Z,10.23
2019-06-20T01:00:22.165Z,10.85
2019-06-20T01:02:51.591Z,10.98
2019-06-20T01:05:20.975Z,10.30
2019-06-20T01:07:50.389Z,10.75
2019-06-20T01:10:19.763Z,11.30
2019-06-20T01:12:49.227Z,10.85
2019-06-20T01:15:18.654Z,9.95
2019-06-20T01:17:48.077Z,10.18
2019-06-20T01:20:17.722Z,10.28
2019-06-20T01:22:47.143Z,11.20
2019-06-20T01:25:18.135Z,10.38
2019-06-20T01:27:47.568Z,10.98
2019-06-20T01:30:17.194Z,10.88
2019-06-20T01:32:46.611Z,10.82
2019-06-20T01:35:16.220Z,9.93
2019-06-20T01:37:45.618Z,9.78
2019-06-20T01:40:15.067Z,10.25
2019-06-20T01:42:44.482Z,10.75
2019-06-20T01:45:14.246Z,10.72
2019-06-20T01:47:43.674Z,11.10
2019-06-20T01:50:13.311Z,11.03
2019-06-20T01:52:42.731Z,10.95
2019-06-20T01:55:12.323Z,10.98
2019-06-20T01:57:41.682Z,11.80
2019-06-20T02:00:14.126Z,11.75
2019-06-20T02:02:43.551Z,11.68
2019-06-20T02:05:13.224Z,12.00
2019-06-20T02:07:42.699Z,13.78
2019-06-20T02:10:12.116Z,13.58
2019-06-20T02:12:41.558Z,14.63
2019-06-20T02:15:11.132Z,15.20
2019-06-20T02:17:40.535Z,14.80
2019-06-20T02:20:11.408Z,15.45
2019-06-20T02:22:40.870Z,15.15
2019-06-20T02:25:10.508Z,14.33
2019-06-20T02:27:39.972Z,14.95
2019-06-20T02:30:09.632Z,16.75
2019-06-20T02:32:39.020Z,15.28
2019-06-20T02:35:08.508Z,15.43
2019-06-20T02:37:37.993Z,15.25
2019-06-20T02:40:07.573Z,15.78
2019-06-20T02:42:36.948Z,14.58
2019-06-20T02:45:06.898Z,14.90
2019-06-20T02:47:36.355Z,14.98
2019-06-20T02:50:08.968Z,14.28
2019-06-20T02:52:38.715Z,15.50
2019-06-20T02:55:08.257Z,15.75
2019-06-20T02:57:37.690Z,14.43
2019-06-20T03:00:09.718Z,13.62
2019-06-20T03:02:39.253Z,14.25
2019-06-20T03:05:09.303Z,13.55
2019-06-20T03:07:38.730Z,13.53
2019-06-20T03:10:08.380Z,15.32
2019-06-20T03:12:37.807Z,16.07
2019-06-20T03:15:07.468Z,17.73
2019-06-20T03:17:36.816Z,17.98
2019-06-20T03:20:06.438Z,18.57
2019-06-20T03:22:35.925Z,18.62
2019-06-20T03:25:05.871Z,17.37
2019-06-20T03:27:35.360Z,18.15
2019-06-20T03:30:06.868Z,16.10
2019-06-20T03:32:36.312Z,15.93
2019-06-20T03:35:06.624Z,13.25
2019-06-20T03:37:36.607Z,13.55
2019-06-20T03:40:06.659Z,12.03
2019-06-20T03:42:36.052Z,11.45
2019-06-20T03:45:06.805Z,11.12
2019-06-20T03:47:35.995Z,9.83
2019-06-20T03:50:08.961Z,10.53
2019-06-20T03:52:38.227Z,9.77
2019-06-20T03:55:07.558Z,10.17
2019-06-20T03:57:36.647Z,9.47
2019-06-20T04:00:09.780Z,10.00
2019-06-20T04:02:38.914Z,10.80
2019-06-20T04:05:08.148Z,10.50
2019-06-20T04:10:41.336Z,11.87
2019-06-20T04:13:10.452Z,11.77
2019-06-20T04:15:39.618Z,12.37
2019-06-20T04:18:09.049Z,11.85
2019-06-20T04:20:38.595Z,11.50
2019-06-20T04:23:08.030Z,12.90
2019-06-20T04:25:37.402Z,11.20
2019-06-20T04:28:06.859Z,10.90
2019-06-20T04:30:36.250Z,11.38
2019-06-20T04:33:05.665Z,11.00
2019-06-20T04:35:35.154Z,10.43
2019-06-20T04:38:04.596Z,10.63
2019-06-20T04:40:36.187Z,11.70
2019-06-20T04:43:05.304Z,10.55
2019-06-20T04:45:42.077Z,10.95
2019-06-20T04:48:11.497Z,10.58
2019-06-20T04:50:40.669Z,9.77
2019-06-20T04:53:10.238Z,10.18
2019-06-20T04:55:39.679Z,10.63
2019-06-20T04:58:09.473Z,8.95
2019-06-20T05:00:38.659Z,9.43
2019-06-20T05:03:07.800Z,9.73
2019-06-20T05:05:37.252Z,10.43
2019-06-20T05:08:07.908Z,9.03
2019-06-20T05:10:37.023Z,10.10
2019-06-20T05:13:06.530Z,9.57
2019-06-20T05:15:51.614Z,9.60
2019-06-20T05:18:06.729Z,9.20
2019-06-20T05:20:35.895Z,9.80
2019-06-20T05:23:05.092Z,10.27
2019-06-20T05:25:34.534Z,10.60
2019-06-20T05:28:03.665Z,9.70
2019-06-20T05:30:33.091Z,10.47
2019-06-20T05:33:02.549Z,9.83
2019-06-20T05:35:31.757Z,10.63
2019-06-20T05:38:00.952Z,10.40
2019-06-20T05:40:30.067Z,9.23
2019-06-20T05:42:59.244Z,9.50
2019-06-20T05:45:28.483Z,9.47
2019-06-20T05:47:57.639Z,8.50
2019-06-20T05:50:26.825Z,8.60
2019-06-20T05:52:56.026Z,8.60
2019-06-20T05:55:25.217Z,8.23
2019-06-20T05:57:54.379Z,8.80
2019-06-20T06:00:24.028Z,9.70
2019-06-20T06:02:58.301Z,9.80
2019-06-20T06:05:26.837Z,9.87
2019-06-20T06:07:58.582Z,9.60
2019-06-20T06:10:29.567Z,9.33
2019-06-20T06:12:58.716Z,9.23
2019-06-20T06:15:32.735Z,10.13
2019-06-20T06:17:59.116Z,9.60
2019-06-20T06:20:28.426Z,9.33
2019-06-20T06:22:57.629Z,9.60
2019-06-20T06:25:29.454Z,9.83
2019-06-20T06:27:58.246Z,8.57
2019-06-20T06:30:28.594Z,8.30
2019-06-20T06:32:57.846Z,8.80
2019-06-20T06:35:27.132Z,8.23
2019-06-20T06:38:00.342Z,8.43
2019-06-20T06:40:32.295Z,8.57
2019-06-20T06:43:08.575Z,8.60
2019-06-20T06:45:37.815Z,8.67
2019-06-20T06:48:06.958Z,8.03
2019-06-20T06:50:36.200Z,8.37
2019-06-20T06:53:05.478Z,8.20
2019-06-20T06:55:34.769Z,7.97
2019-06-20T06:58:05.895Z,8.60
2019-06-20T07:03:27.373Z,8.93
2019-06-20T07:05:58.322Z,8.53
2019-06-20T07:08:27.486Z,9.03
2019-06-20T07:11:01.422Z,9.30
2019-06-20T07:13:27.772Z,8.77
2019-06-20T07:16:00.998Z,9.43
2019-06-20T07:18:32.952Z,9.13
2019-06-20T07:21:05.230Z,9.37
2019-06-20T07:23:34.416Z,9.40
2019-06-20T07:26:03.911Z,9.13
2019-06-20T07:28:34.394Z,9.37
2019-06-20T07:31:05.936Z,9.30
2019-06-20T07:33:35.066Z,9.90
2019-06-20T07:36:07.412Z,9.80
2019-06-20T07:38:36.540Z,9.53
2019-06-20T07:41:05.703Z,10.93
2019-06-20T07:43:37.926Z,10.27
2019-06-20T07:46:09.726Z,9.53
2019-06-20T07:48:38.838Z,9.50
2019-06-20T07:53:56.293Z,10.40
2019-06-20T07:56:29.790Z,10.57
2019-06-20T07:59:04.791Z,10.97
2019-06-20T08:01:40.924Z,10.07
2019-06-20T08:07:43.369Z,10.77
2019-06-20T08:10:16.790Z,10.03
2019-06-20T08:12:50.545Z,10.37
2019-06-20T08:15:20.267Z,10.80
2019-06-20T08:17:55.556Z,10.20
2019-06-20T08:20:25.899Z,10.43
2019-06-20T08:22:56.968Z,10.63
2019-06-20T08:25:26.314Z,10.13
2019-06-20T08:28:04.281Z,10.37
2019-06-20T08:30:35.412Z,10.37
2019-06-20T08:33:25.773Z,9.63
2019-06-20T08:36:00.402Z,10.80
2019-06-20T08:38:36.385Z,9.93
2019-06-20T08:41:07.261Z,10.93
2019-06-20T08:43:37.623Z,10.30
2019-06-20T08:46:10.417Z,11.00
2019-06-20T08:48:39.905Z,10.40
2019-06-20T08:51:09.422Z,10.00
2019-06-20T08:59:58.823Z,9.63
2019-06-20T09:02:30.156Z,9.40
2019-06-20T09:17:05.291Z,9.20
2019-06-20T09:28:16.688Z,10.00
2019-06-20T09:33:40.212Z,10.10
2019-06-20T09:42:56.444Z,9.37
2019-06-20T09:48:26.435Z,10.03
2019-06-20T09:50:58.711Z,10.43
2019-06-20T09:57:34.022Z,11.27
2019-06-20T10:11:18.722Z,9.20
2019-06-20T10:14:03.533Z,10.43
2019-06-20T10:16:45.333Z,10.07
2019-06-20T10:27:48.290Z,13.03
2019-06-20T10:30:35.271Z,11.20
2019-06-20T10:33:16.229Z,9.83
2019-06-20T10:36:17.377Z,12.37
2019-06-20T10:38:48.075Z,9.90
2019-06-20T10:47:52.483Z,9.17
2019-06-20T10:57:04.489Z,9.00
2019-06-20T10:59:52.586Z,9.40
2019-06-20T11:02:41.849Z,9.47
2019-06-20T11:11:14.517Z,9.70
2019-06-20T11:13:50.820Z,9.47
2019-06-20T11:16:19.017Z,9.33
2019-06-20T11:18:48.795Z,38.83
2019-06-20T11:21:39.793Z,20.43
2019-06-20T11:37:45.036Z,9.50
2019-06-20T11:40:18.562Z,10.23
2019-06-20T11:43:20.498Z,8.90
2019-06-20T11:46:00.244Z,9.13
2019-06-20T11:51:37.602Z,8.70
2019-06-20T11:57:14.792Z,8.07
2019-06-20T12:00:15.315Z,8.70
2019-06-20T12:05:38.448Z,9.10
2019-06-20T12:08:13.940Z,9.97
2019-06-20T12:11:10.533Z,10.43
2019-06-20T12:13:36.094Z,9.07
2019-06-20T12:26:02.226Z,8.93
2019-06-20T12:35:32.319Z,9.33
2019-06-20T12:38:50.894Z,9.07
2019-06-20T13:00:18.832Z,11.77
2019-06-20T13:02:57.317Z,12.13
2019-06-20T13:05:38.454Z,11.03
2019-06-20T13:08:13.653Z,10.47
2019-06-20T13:10:46.239Z,9.93
2019-06-20T13:20:14.667Z,9.63
2019-06-20T13:55:39.440Z,9.97
2019-06-20T13:58:42.396Z,9.73
2019-06-20T14:07:29.329Z,8.80
2019-06-20T14:09:58.399Z,10.70
2019-06-20T14:12:33.601Z,10.57
2019-06-20T14:15:06.147Z,10.50
2019-06-20T14:17:42.890Z,9.97
2019-06-20T14:20:18.686Z,9.23
2019-06-20T14:25:38.248Z,9.50
2019-06-20T14:28:45.970Z,9.40
2019-06-20T14:31:28.949Z,8.93
2019-06-20T14:40:28.209Z,10.00
2019-06-20T14:42:54.255Z,9.60
2019-06-20T14:48:34.166Z,9.60
2019-06-20T14:51:03.663Z,9.40
2019-06-20T14:54:04.407Z,9.10
2019-06-20T14:56:18.966Z,9.83
2019-06-20T15:01:33.710Z,9.57
2019-06-20T15:07:00.143Z,9.77
2019-06-20T15:09:32.841Z,10.17
2019-06-20T15:12:01.945Z,9.97
2019-06-20T15:14:49.417Z,10.20
2019-06-20T15:17:15.680Z,10.07
2019-06-20T15:19:46.136Z,10.80
2019-06-20T15:22:20.014Z,9.50
2019-06-20T15:24:51.745Z,10.80
2019-06-20T15:27:20.056Z,10.10
2019-06-20T15:29:50.464Z,9.77
2019-06-20T15:32:19.974Z,9.13
2019-06-20T15:34:53.234Z,9.03
2019-06-20T15:37:22.377Z,8.80
2019-06-20T15:39:52.106Z,9.67
2019-06-20T15:42:22.626Z,8.63
2019-06-20T15:44:51.871Z,8.70
2019-06-20T15:47:23.492Z,8.33
2019-06-20T15:49:52.858Z,8.03
2019-06-20T15:52:22.069Z,8.20
2019-06-20T15:54:51.381Z,7.57
2019-06-20T15:57:20.794Z,6.50
2019-06-20T15:59:50.165Z,6.53
2019-06-20T16:02:19.384Z,5.87
2019-06-20T16:04:48.989Z,5.80
2019-06-20T16:07:21.096Z,6.27
2019-06-20T16:09:50.282Z,5.60
2019-06-20T16:12:24.739Z,5.17
2019-06-20T16:14:53.671Z,5.40
2019-06-20T16:17:24.866Z,6.40
2019-06-20T16:19:54.173Z,6.80
2019-06-20T16:22:23.404Z,6.10
2019-06-20T16:24:53.328Z,5.80
2019-06-20T16:27:22.574Z,5.57
2019-06-20T16:29:51.757Z,5.83
2019-06-20T16:32:23.525Z,5.70
2019-06-20T16:34:52.648Z,5.60
2019-06-20T16:37:23.908Z,5.80
2019-06-20T16:39:53.254Z,5.23
2019-06-20T16:42:22.666Z,5.87
2019-06-20T16:44:53.495Z,5.77
2019-06-20T16:47:23.271Z,5.97
2019-06-20T16:49:52.671Z,6.13
2019-06-20T16:52:22.082Z,5.70
2019-06-20T16:54:51.433Z,5.60
2019-06-20T16:57:20.637Z,5.67
2019-06-20T16:59:49.719Z,5.57
2019-06-20T17:02:19.114Z,5.90
2019-06-20T17:04:48.939Z,5.90
2019-06-20T17:07:18.351Z,5.80
2019-06-20T17:09:50.606Z,6.23
2019-06-20T17:12:19.792Z,6.30
2019-06-20T17:14:48.977Z,6.97
2019-06-20T17:17:18.335Z,6.40
2019-06-20T17:19:50.219Z,7.10
2019-06-20T17:22:22.332Z,7.83
2019-06-20T17:24:51.789Z,6.57
2019-06-20T17:27:20.955Z,7.50
2019-06-20T17:29:50.057Z,7.63
2019-06-20T17:32:23.739Z,8.03
2019-06-20T17:34:55.348Z,8.30
2019-06-20T17:37:24.579Z,8.67
2019-06-20T17:39:53.892Z,8.37
2019-06-20T17:42:23.224Z,7.93
2019-06-20T17:44:52.491Z,8.63
2019-06-20T17:47:24.605Z,8.23
2019-06-20T17:49:54.232Z,7.80
2019-06-20T17:52:23.579Z,7.60
2019-06-20T17:54:54.677Z,7.13
2019-06-20T17:57:23.934Z,7.10
2019-06-20T17:59:53.205Z,6.77
2019-06-20T18:02:22.681Z,6.58
2019-06-20T18:04:51.812Z,7.30
2019-06-20T18:07:24.176Z,6.97
2019-06-20T18:09:53.734Z,6.90
2019-06-20T18:12:23.056Z,6.97
2019-06-20T18:14:52.335Z,7.33
2019-06-20T18:17:22.370Z,7.47
2019-06-20T18:19:52.088Z,10.15
2019-06-20T18:22:21.662Z,8.65
2019-06-20T18:24:51.215Z,7.28
2019-06-20T18:27:20.350Z,7.70
2019-06-20T18:29:52.642Z,7.17
2019-06-20T18:32:22.590Z,7.95
2019-06-20T18:35:01.486Z,7.30
2019-06-20T18:37:31.354Z,7.83
2019-06-20T18:39:54.943Z,8.28
2019-06-20T18:42:24.705Z,7.17
2019-06-20T18:44:54.176Z,7.45
2019-06-20T18:47:23.750Z,8.33
2019-06-20T18:49:53.461Z,8.23
2019-06-20T18:52:22.989Z,7.20
2019-06-20T18:54:52.585Z,6.78
2019-06-20T18:57:21.984Z,6.90
2019-06-20T18:59:51.622Z,7.33
2019-06-20T19:02:24.142Z,7.10
2019-06-20T19:04:53.588Z,7.33
2019-06-20T19:07:23.129Z,7.20
2019-06-20T19:09:53.169Z,7.42
2019-06-20T19:12:22.908Z,7.00
2019-06-20T19:14:52.428Z,7.10
2019-06-20T19:17:21.844Z,7.05
2019-06-20T19:19:51.761Z,7.05
2019-06-20T19:22:21.514Z,7.10
2019-06-20T19:24:51.422Z,6.83
2019-06-20T19:27:21.194Z,6.45
2019-06-20T19:29:51.276Z,7.15
2019-06-20T19:32:20.753Z,7.00
2019-06-20T19:35:01.374Z,7.37
2019-06-20T19:37:21.531Z,7.58
2019-06-20T19:39:50.906Z,7.40
2019-06-20T19:42:20.730Z,7.10
2019-06-20T19:44:50.179Z,6.70
2019-06-20T19:47:19.564Z,6.95
2019-06-20T19:49:48.926Z,6.17
2019-06-20T19:52:18.394Z,6.42
2019-06-20T19:54:47.815Z,6.80
2019-06-20T19:57:17.330Z,8.30
2019-06-20T19:59:46.781Z,8.10
2019-06-20T20:02:16.202Z,7.05
2019-06-20T20:04:45.695Z,6.83
2019-06-20T20:07:15.266Z,6.72
2019-06-20T20:09:44.711Z,6.62
2019-06-20T20:12:14.186Z,7.08
2019-06-20T20:14:44.748Z,6.87
2019-06-20T20:17:14.138Z,6.75
2019-06-20T20:19:43.517Z,7.10
2019-06-20T20:22:13.067Z,7.33
2019-06-20T20:24:42.507Z,8.00
2019-06-20T20:27:11.939Z,7.45
2019-06-20T20:29:41.426Z,7.28
2019-06-20T20:32:11.026Z,7.35
2019-06-20T20:34:40.567Z,7.50
2019-06-20T20:37:10.123Z,7.22
2019-06-20T20:39:39.899Z,8.00
2019-06-20T20:42:09.292Z,8.05
2019-06-20T20:44:38.740Z,7.95
2019-06-20T20:47:08.219Z,8.83
2019-06-20T20:49:37.644Z,10.03
2019-06-20T20:52:07.007Z,10.23
2019-06-20T20:54:36.468Z,11.20
2019-06-20T20:57:05.904Z,10.93
2019-06-20T20:59:35.352Z,10.30
2019-06-20T21:02:04.891Z,11.05
2019-06-20T21:04:34.324Z,10.88
2019-06-20T21:07:03.684Z,10.93
2019-06-20T21:09:34.452Z,12.13
2019-06-20T21:12:03.833Z,10.48
2019-06-20T21:14:33.287Z,9.03
2019-06-20T21:17:02.774Z,8.55
2019-06-20T21:19:32.195Z,8.53
2019-06-20T21:22:01.609Z,8.28
2019-06-20T21:24:31.111Z,8.83
2019-06-20T21:27:00.547Z,8.33
2019-06-20T21:29:29.987Z,8.33
2019-06-20T21:31:59.454Z,8.38
2019-06-20T21:34:28.885Z,8.28
2019-06-20T21:36:58.309Z,8.50
2019-06-20T21:39:27.692Z,8.95
2019-06-20T21:41:57.147Z,8.80
2019-06-20T21:44:26.496Z,8.50
2019-06-20T21:46:55.939Z,8.23
2019-06-20T21:49:25.400Z,7.85
2019-06-20T21:51:54.757Z,8.40
2019-06-20T21:54:24.186Z,7.97
2019-06-20T21:56:53.641Z,8.23
2019-06-20T21:59:23.024Z,9.28
2019-06-20T22:01:52.397Z,8.65
2019-06-20T22:04:21.855Z,8.90
2019-06-20T22:06:51.290Z,8.68
2019-06-20T22:09:20.700Z,9.60
2019-06-20T22:11:50.262Z,9.15
2019-06-20T22:14:19.699Z,11.33
2019-06-20T22:16:49.141Z,11.83
2019-06-20T22:19:18.619Z,12.28
2019-06-20T22:21:48.043Z,10.00
2019-06-20T22:24:17.477Z,10.08
2019-06-20T22:26:46.966Z,9.45
2019-06-20T22:29:16.419Z,10.48
2019-06-20T22:31:45.843Z,9.30
2019-06-20T22:34:15.369Z,10.20
2019-06-20T22:36:44.776Z,9.73
2019-06-20T22:39:14.205Z,9.35
2019-06-20T22:41:43.638Z,9.95
2019-06-20T22:44:13.080Z,9.33
2019-06-20T22:46:42.504Z,10.65
2019-06-20T22:49:12.022Z,9.85
2019-06-20T22:51:41.534Z,10.70
2019-06-20T22:54:10.897Z,9.60
2019-06-20T22:56:40.329Z,11.68
2019-06-20T22:59:09.789Z,11.70
2019-06-20T23:01:39.226Z,11.65
2019-06-20T23:04:08.711Z,10.65
2019-06-20T23:06:38.170Z,9.60
2019-06-20T23:09:08.150Z,9.88
2019-06-20T23:11:37.590Z,10.53
2019-06-20T23:14:07.024Z,10.65
2019-06-20T23:16:36.461Z,9.98
2019-06-20T23:19:05.948Z,10.08
2019-06-20T23:21:35.421Z,10.25
2019-06-20T23:24:04.844Z,10.70
2019-06-20T23:26:34.517Z,10.65
2019-06-20T23:29:21.481Z,10.45
2019-06-20T23:31:54.557Z,10.43
2019-06-20T23:34:24.011Z,10.60
2019-06-20T23:36:53.436Z,11.35
2019-06-20T23:39:22.916Z,9.93
2019-06-20T23:41:52.321Z,9.88
2019-06-20T23:44:21.759Z,11.22
2019-06-20T23:46:51.249Z,10.70
2019-06-20T23:49:20.685Z,10.23
2019-06-20T23:51:51.685Z,11.20
2019-06-20T23:54:21.153Z,10.93
2019-06-20T23:56:50.587Z,12.23
2019-06-20T23:59:20.018Z,12.35
